Time;durP1;ratioP1;P1;durP2;ratioP2;P2;SDS_P1;SDS_P2;PMS_P1;PMS_P2;Temp;Humidity;BMP_temperature;BMP_pressure;BME280_temperature;BME280_humidity;BME280_pressure;Samples;Min_cycle;Max_cycle;Signal;HPM_P1;HPM_P2
2021/12/03 00:00:58;;;;;;;8.82;4.85;;;1.50;26.60;;;;;;5056477;28;20041;-75
2021/12/03 00:03:26;;;;;;;7.63;4.45;;;1.50;26.50;;;;;;5059755;28;20061;-75
2021/12/03 00:05:57;;;;;;;9.57;4.85;;;1.50;26.20;;;;;;5044206;28;20045;-75
2021/12/03 00:08:26;;;;;;;8.35;4.70;;;1.50;26.40;;;;;;5043189;28;21283;-75
2021/12/03 00:10:59;;;;;;;7.93;5.25;;;1.50;26.50;;;;;;5065482;28;20151;-73
2021/12/03 00:13:30;;;;;;;9.93;5.93;;;1.50;26.60;;;;;;5064712;28;20040;-73
2021/12/03 00:15:59;;;;;;;8.95;5.25;;;1.50;26.80;;;;;;5065422;28;20281;-74
2021/12/03 00:18:28;;;;;;;9.02;5.45;;;1.40;27.50;;;;;;5063116;28;20045;-74
2021/12/03 00:20:56;;;;;;;8.43;5.45;;;1.40;26.90;;;;;;5064131;28;20577;-74
2021/12/03 00:23:25;;;;;;;9.52;5.70;;;1.50;27.50;;;;;;5070938;28;20044;-74
2021/12/03 00:25:53;;;;;;;11.50;5.95;;;1.40;27.50;;;;;;5062419;28;20044;-74
2021/12/03 00:28:23;;;;;;;10.20;5.75;;;1.40;27.50;;;;;;5063137;28;20159;-74
2021/12/03 00:30:52;;;;;;;10.02;5.82;;;1.40;27.50;;;;;;5066586;28;20060;-74
2021/12/03 00:33:20;;;;;;;10.00;5.20;;;1.40;27.70;;;;;;5063500;28;20045;-74
2021/12/03 00:35:48;;;;;;;9.20;4.80;;;1.40;27.50;;;;;;5064536;28;20072;-74
2021/12/03 00:38:17;;;;;;;12.25;5.70;;;1.40;27.50;;;;;;5065512;28;20044;-74
2021/12/03 00:40:46;;;;;;;8.40;5.28;;;1.50;27.40;;;;;;5061659;28;20078;-75
2021/12/03 00:43:14;;;;;;;9.23;5.20;;;1.40;27.00;;;;;;5068459;28;20404;-74
2021/12/03 00:45:45;;;;;;;7.65;5.40;;;1.40;27.50;;;;;;5063818;28;20072;-73
2021/12/03 00:48:13;;;;;;;8.20;5.25;;;1.40;27.40;;;;;;5062490;28;20504;-74
2021/12/03 00:50:41;;;;;;;9.05;5.30;;;1.40;27.50;;;;;;5062686;28;20043;-74
2021/12/03 00:53:09;;;;;;;9.68;5.63;;;1.40;27.50;;;;;;5064922;28;20056;-73
2021/12/03 00:55:37;;;;;;;11.63;5.63;;;1.50;27.10;;;;;;5060929;28;20051;-73
2021/12/03 00:58:05;;;;;;;11.77;6.28;;;1.50;27.50;;;;;;5066354;28;20123;-74
2021/12/03 01:00:34;;;;;;;8.35;5.20;;;1.40;27.50;;;;;;5061288;28;20041;-73
2021/12/03 01:03:04;;;;;;;11.32;5.97;;;1.50;27.60;;;;;;5068142;28;20051;-73
2021/12/03 01:05:33;;;;;;;11.20;5.57;;;1.40;27.50;;;;;;5062183;28;20052;-74
2021/12/03 01:08:01;;;;;;;8.70;5.60;;;1.40;28.50;;;;;;5060165;28;20052;-73
2021/12/03 01:10:30;;;;;;;9.10;5.78;;;1.40;27.50;;;;;;5057989;28;20097;-73
2021/12/03 01:12:58;;;;;;;10.90;5.00;;;1.40;27.30;;;;;;5060641;28;20049;-73
2021/12/03 01:15:33;;;;;;;10.38;6.10;;;1.40;27.50;;;;;;5062950;28;20049;-73
2021/12/03 01:18:04;;;;;;;8.73;5.53;;;1.40;27.90;;;;;;5066199;28;20098;-73
2021/12/03 01:20:32;;;;;;;13.05;6.25;;;1.40;28.00;;;;;;5062643;28;20040;-74
2021/12/03 01:23:02;;;;;;;8.15;5.65;;;1.40;27.90;;;;;;5060783;28;20125;-73
2021/12/03 01:25:31;;;;;;;10.85;7.10;;;1.30;28.10;;;;;;5063114;28;20045;-74
2021/12/03 01:28:00;;;;;;;11.23;6.68;;;1.40;27.40;;;;;;5063713;28;20532;-72
2021/12/03 01:30:30;;;;;;;10.82;6.55;;;1.40;26.60;;;;;;5059837;28;20068;-72
2021/12/03 01:33:00;;;;;;;10.07;6.30;;;1.40;26.90;;;;;;5066036;28;20052;-72
2021/12/03 01:35:30;;;;;;;13.50;6.20;;;1.40;27.50;;;;;;5063597;28;20497;-72
2021/12/03 01:37:58;;;;;;;12.13;7.75;;;1.40;26.80;;;;;;5063034;28;20512;-72
2021/12/03 01:40:29;;;;;;;11.02;6.80;;;1.40;26.80;;;;;;5062429;28;20135;-73
2021/12/03 01:42:57;;;;;;;9.20;6.18;;;1.40;26.90;;;;;;5059501;28;20047;-73
2021/12/03 01:45:29;;;;;;;10.68;7.13;;;1.30;26.20;;;;;;5045514;28;20063;-73
2021/12/03 01:48:00;;;;;;;8.40;5.72;;;1.30;27.30;;;;;;5064678;28;20047;-72
2021/12/03 01:50:32;;;;;;;11.27;6.45;;;1.30;27.40;;;;;;5061624;28;20506;-73
2021/12/03 01:53:00;;;;;;;12.80;6.60;;;1.30;27.40;;;;;;5063583;28;20476;-72
2021/12/03 01:55:29;;;;;;;10.90;6.72;;;1.30;27.60;;;;;;5067148;28;20044;-71
2021/12/03 01:57:57;;;;;;;12.68;7.53;;;1.30;27.60;;;;;;5060715;28;20106;-73
2021/12/03 02:00:30;;;;;;;14.10;7.85;;;1.30;27.40;;;;;;5061890;28;20453;-73
2021/12/03 02:02:59;;;;;;;11.13;7.10;;;1.30;27.90;;;;;;5061151;28;20076;-72
2021/12/03 02:05:28;;;;;;;15.40;7.10;;;1.30;27.40;;;;;;5060878;28;20037;-73
2021/12/03 02:07:57;;;;;;;11.40;6.07;;;1.30;26.20;;;;;;5058345;28;20137;-72
2021/12/03 02:10:25;;;;;;;14.95;7.28;;;1.30;26.20;;;;;;5065917;28;20056;-73
2021/12/03 02:12:55;;;;;;;12.07;6.80;;;1.30;26.60;;;;;;5063251;28;20060;-73
2021/12/03 02:15:23;;;;;;;11.45;7.30;;;1.20;26.30;;;;;;5064899;28;20044;-72
2021/12/03 02:17:52;;;;;;;10.98;7.30;;;1.20;26.10;;;;;;5061924;28;20048;-73
2021/12/03 02:20:20;;;;;;;12.82;7.68;;;1.20;25.50;;;;;;5061800;28;20049;-72
2021/12/03 02:22:50;;;;;;;9.80;6.80;;;1.20;25.70;;;;;;5065440;28;20050;-73
2021/12/03 02:25:21;;;;;;;10.75;6.82;;;1.10;26.20;;;;;;5061166;28;20045;-73
2021/12/03 02:27:50;;;;;;;10.10;6.85;;;1.10;26.30;;;;;;5059510;28;20444;-73
2021/12/03 02:30:21;;;;;;;13.30;7.57;;;1.10;26.00;;;;;;5066378;28;20044;-72
2021/12/03 02:32:51;;;;;;;10.77;7.32;;;1.10;26.60;;;;;;5064995;28;20050;-73
2021/12/03 02:35:21;;;;;;;10.15;6.50;;;1.00;26.20;;;;;;5060992;28;20656;-72
2021/12/03 02:37:53;;;;;;;10.20;7.18;;;1.00;26.30;;;;;;5063313;28;20106;-72
2021/12/03 02:40:23;;;;;;;12.32;8.27;;;1.00;25.90;;;;;;5060137;28;20057;-73
2021/12/03 02:42:52;;;;;;;13.38;7.82;;;1.00;26.40;;;;;;5065174;28;20139;-73
2021/12/03 02:45:21;;;;;;;13.90;7.57;;;0.90;26.80;;;;;;5066216;28;20127;-73
2021/12/03 02:47:49;;;;;;;12.73;7.60;;;0.90;26.90;;;;;;5056471;28;20045;-71
2021/12/03 02:50:18;;;;;;;14.52;7.60;;;0.90;26.50;;;;;;5058666;28;20075;-73
2021/12/03 02:52:51;;;;;;;15.43;8.70;;;0.90;26.20;;;;;;5064463;28;20163;-73
2021/12/03 02:55:21;;;;;;;12.43;7.50;;;0.90;26.50;;;;;;5055937;28;20062;-73
2021/12/03 02:57:51;;;;;;;12.88;7.18;;;0.90;26.80;;;;;;5067281;28;20113;-73
2021/12/03 03:00:22;;;;;;;14.57;8.68;;;0.80;26.40;;;;;;5066636;28;20131;-73
2021/12/03 03:02:51;;;;;;;16.67;7.35;;;0.90;27.10;;;;;;5065552;28;20614;-71
2021/12/03 03:05:22;;;;;;;14.35;7.80;;;0.80;27.00;;;;;;5071300;28;20044;-71
2021/12/03 03:07:50;;;;;;;14.25;8.10;;;0.90;27.20;;;;;;5060291;28;20051;-72
2021/12/03 03:10:25;;;;;;;13.18;8.10;;;0.80;27.20;;;;;;5062857;28;20059;-71
2021/12/03 03:12:54;;;;;;;13.70;8.43;;;0.80;27.50;;;;;;5068473;28;20040;-72
2021/12/03 03:15:22;;;;;;;16.38;8.48;;;0.80;27.80;;;;;;5065965;28;20083;-72
2021/12/03 03:17:50;;;;;;;15.18;9.65;;;0.70;28.00;;;;;;5063166;28;20047;-72
2021/12/03 03:20:20;;;;;;;11.70;7.68;;;0.80;28.50;;;;;;5064830;28;20049;-72
2021/12/03 03:22:50;;;;;;;11.90;7.90;;;0.70;28.70;;;;;;5068045;28;20144;-72
2021/12/03 03:25:20;;;;;;;14.25;8.05;;;0.70;28.90;;;;;;5058546;28;20128;-72
2021/12/03 03:27:49;;;;;;;15.77;8.82;;;0.70;28.90;;;;;;5062806;28;20045;-72
2021/12/03 03:30:19;;;;;;;11.65;7.88;;;0.70;29.30;;;;;;5066094;28;20059;-72
2021/12/03 03:32:54;;;;;;;13.82;7.90;;;0.60;28.60;;;;;;5063039;28;20076;-72
2021/12/03 03:35:29;;;;;;;13.20;8.32;;;0.70;28.50;;;;;;5061054;28;20583;-72
2021/12/03 03:37:57;;;;;;;13.63;8.07;;;0.60;28.80;;;;;;5062165;28;21303;-72
2021/12/03 03:40:27;;;;;;;11.38;8.15;;;0.70;28.20;;;;;;5057704;28;20040;-72
2021/12/03 03:42:57;;;;;;;14.18;8.20;;;0.70;28.50;;;;;;5047946;28;20056;-72
2021/12/03 03:45:26;;;;;;;15.60;8.43;;;0.70;28.10;;;;;;5061871;28;20048;-72
2021/12/03 03:47:54;;;;;;;16.15;8.27;;;0.70;27.80;;;;;;5063313;28;20621;-72
2021/12/03 03:50:23;;;;;;;12.82;8.25;;;0.70;27.20;;;;;;5071153;28;20134;-72
2021/12/03 03:52:53;;;;;;;16.77;8.32;;;0.70;27.50;;;;;;5065492;28;20131;-72
2021/12/03 03:55:27;;;;;;;12.98;8.45;;;0.70;27.00;;;;;;5059258;28;20144;-72
2021/12/03 03:57:58;;;;;;;13.75;8.57;;;0.70;27.10;;;;;;5065603;28;20048;-72
2021/12/03 04:00:29;;;;;;;11.93;8.23;;;0.70;27.00;;;;;;5043249;28;20060;-72
2021/12/03 04:02:58;;;;;;;15.50;9.02;;;0.70;27.10;;;;;;5066137;28;20101;-71
2021/12/03 04:05:26;;;;;;;13.43;8.25;;;0.70;27.10;;;;;;5067501;28;20048;-72
2021/12/03 04:07:54;;;;;;;15.20;8.38;;;0.70;27.00;;;;;;5059670;28;20611;-72
2021/12/03 04:10:23;;;;;;;12.93;8.15;;;0.70;27.00;;;;;;5065857;28;20044;-72
2021/12/03 04:12:52;;;;;;;13.82;8.48;;;0.80;27.10;;;;;;5066815;28;20068;-72
2021/12/03 04:15:20;;;;;;;13.38;7.90;;;0.80;26.40;;;;;;5059609;28;20048;-71
2021/12/03 04:17:50;;;;;;;13.68;8.02;;;0.80;26.40;;;;;;5064395;28;20072;-72
2021/12/03 04:20:22;;;;;;;14.23;7.95;;;0.80;26.20;;;;;;5060844;28;20118;-72
2021/12/03 04:22:50;;;;;;;12.82;8.35;;;0.90;25.50;;;;;;5065419;28;20076;-71
2021/12/03 04:25:21;;;;;;;13.25;7.47;;;0.90;25.40;;;;;;5064912;28;20364;-71
2021/12/03 04:27:50;;;;;;;14.85;7.53;;;0.90;25.30;;;;;;5062749;28;20601;-72
2021/12/03 04:30:22;;;;;;;11.93;7.57;;;0.80;25.10;;;;;;5063130;28;20045;-71
2021/12/03 04:32:50;;;;;;;16.58;9.10;;;0.80;25.30;;;;;;5069657;28;20131;-70
2021/12/03 04:35:18;;;;;;;15.45;8.23;;;0.80;25.40;;;;;;5062692;28;20044;-71
2021/12/03 04:37:47;;;;;;;15.25;9.02;;;0.80;25.50;;;;;;5065633;28;20144;-71
2021/12/03 04:40:17;;;;;;;13.48;8.05;;;0.90;25.50;;;;;;5063145;28;20052;-71
2021/12/03 04:42:47;;;;;;;13.18;7.70;;;0.80;25.20;;;;;;5066078;28;20037;-71
2021/12/03 04:45:18;;;;;;;13.00;7.75;;;0.80;24.70;;;;;;5068669;28;20060;-71
2021/12/03 04:47:49;;;;;;;15.35;7.88;;;0.80;24.60;;;;;;5059841;28;20583;-71
2021/12/03 04:50:20;;;;;;;12.18;7.75;;;0.80;24.60;;;;;;5062603;28;20037;-71
2021/12/03 04:52:49;;;;;;;12.93;7.47;;;0.80;24.20;;;;;;5068190;28;20056;-71
2021/12/03 04:55:17;;;;;;;11.82;7.50;;;0.90;24.40;;;;;;5061364;28;20467;-71
2021/12/03 04:57:45;;;;;;;12.77;7.93;;;0.90;23.80;;;;;;5066004;28;20131;-71
2021/12/03 05:00:17;;;;;;;12.63;7.28;;;0.90;23.60;;;;;;5060995;28;20102;-71
2021/12/03 05:02:45;;;;;;;13.50;7.80;;;0.90;22.80;;;;;;5064326;28;20118;-71
2021/12/03 05:05:15;;;;;;;44.92;16.92;;;1.00;22.70;;;;;;5066191;28;20061;-71
2021/12/03 05:07:57;;;;;;;42.85;18.92;;;1.00;22.30;;;;;;5062314;28;20040;-71
2021/12/03 05:10:26;;;;;;;12.68;7.72;;;1.00;22.30;;;;;;5060370;28;20045;-71
2021/12/03 05:12:57;;;;;;;16.65;8.98;;;1.10;22.00;;;;;;5068196;28;20058;-71
2021/12/03 05:15:31;;;;;;;10.32;7.22;;;1.20;21.50;;;;;;5063288;28;20284;-71
2021/12/03 05:18:00;;;;;;;12.45;7.38;;;1.00;21.00;;;;;;5057985;28;20073;-71
2021/12/03 05:20:29;;;;;;;11.50;7.38;;;0.90;20.50;;;;;;5068336;28;20056;-72
2021/12/03 05:22:57;;;;;;;10.73;6.90;;;0.90;20.60;;;;;;5066806;28;20119;-72
2021/12/03 05:25:26;;;;;;;11.80;7.72;;;0.90;20.80;;;;;;5063012;28;20055;-71
2021/12/03 05:27:54;;;;;;;13.73;6.25;;;0.90;20.80;;;;;;5064428;28;20269;-71
2021/12/03 05:30:23;;;;;;;10.10;6.57;;;0.90;20.40;;;;;;5062222;28;20048;-72
2021/12/03 05:32:51;;;;;;;8.63;6.25;;;0.90;19.30;;;;;;5071520;28;20385;-70
2021/12/03 05:35:24;;;;;;;13.68;6.50;;;0.80;20.40;;;;;;5066294;28;20399;-70
2021/12/03 05:37:53;;;;;;;9.50;6.15;;;0.80;20.40;;;;;;5059620;28;20045;-70
2021/12/03 05:40:26;;;;;;;10.25;5.90;;;0.80;20.40;;;;;;5066162;28;20051;-71
2021/12/03 05:42:57;;;;;;;10.57;6.45;;;0.80;20.40;;;;;;5059688;28;20087;-72
2021/12/03 05:45:28;;;;;;;12.43;6.88;;;0.70;20.30;;;;;;5062228;28;20098;-70
2021/12/03 05:47:57;;;;;;;10.38;6.72;;;0.70;19.50;;;;;;5063360;28;20053;-72
2021/12/03 05:50:26;;;;;;;12.25;7.20;;;0.70;19.80;;;;;;5062085;28;20139;-70
2021/12/03 05:52:57;;;;;;;13.25;6.32;;;0.60;19.50;;;;;;5065271;28;20547;-70
2021/12/03 05:55:26;;;;;;;11.02;6.40;;;0.60;19.90;;;;;;5065081;28;20074;-72
2021/12/03 05:57:54;;;;;;;11.95;7.45;;;0.60;19.80;;;;;;5059452;28;20055;-70
2021/12/03 06:00:26;;;;;;;11.88;6.40;;;0.60;18.70;;;;;;5063240;28;20056;-71
2021/12/03 06:02:55;;;;;;;12.57;6.10;;;0.60;17.80;;;;;;5063977;28;22088;-72
2021/12/03 06:05:30;;;;;;;8.82;5.72;;;0.60;18.30;;;;;;5060519;28;20048;-71
2021/12/03 06:07:59;;;;;;;10.40;6.47;;;0.60;18.00;;;;;;5063481;28;20048;-71
2021/12/03 06:10:28;;;;;;;10.75;6.40;;;0.70;17.20;;;;;;5063103;28;20055;-72
2021/12/03 06:12:56;;;;;;;10.05;6.95;;;0.70;17.20;;;;;;5061114;28;20041;-71
2021/12/03 06:15:24;;;;;;;10.75;6.68;;;0.70;16.90;;;;;;5064789;28;20058;-71
2021/12/03 06:17:52;;;;;;;11.18;7.38;;;0.80;15.10;;;;;;5054516;28;20124;-71
2021/12/03 06:20:23;;;;;;;12.50;7.30;;;0.80;15.60;;;;;;5057844;28;20052;-71
2021/12/03 06:22:52;;;;;;;13.07;7.22;;;0.80;15.50;;;;;;5066977;28;20204;-71
2021/12/03 06:25:22;;;;;;;14.98;8.10;;;0.80;16.40;;;;;;5060103;28;20136;-71
2021/12/03 06:27:54;;;;;;;12.45;7.43;;;0.90;17.30;;;;;;5063206;28;20054;-71
2021/12/03 06:30:24;;;;;;;14.75;7.70;;;0.90;15.80;;;;;;5066597;28;20040;-72
2021/12/03 06:32:52;;;;;;;11.68;6.70;;;0.70;16.00;;;;;;5061979;28;20047;-70
2021/12/03 06:35:21;;;;;;;9.98;6.55;;;0.80;17.00;;;;;;5061827;28;20056;-71
2021/12/03 06:37:51;;;;;;;12.40;7.22;;;0.70;14.50;;;;;;5061462;28;20083;-71
2021/12/03 06:40:22;;;;;;;12.88;7.25;;;0.60;15.30;;;;;;5059829;28;20480;-71
2021/12/03 06:42:50;;;;;;;14.45;7.40;;;0.60;15.20;;;;;;5066645;28;20052;-71
2021/12/03 06:45:19;;;;;;;12.68;7.40;;;0.50;15.20;;;;;;5060939;28;20044;-70
2021/12/03 06:47:47;;;;;;;10.30;6.80;;;0.50;15.00;;;;;;5057708;28;20501;-69
2021/12/03 06:50:20;;;;;;;12.80;7.18;;;0.40;14.20;;;;;;5060854;28;20613;-70
2021/12/03 06:52:54;;;;;;;12.45;6.78;;;0.40;14.00;;;;;;5064902;28;20114;-71
2021/12/03 06:55:24;;;;;;;11.50;6.75;;;0.40;13.60;;;;;;5057751;28;20499;-71
2021/12/03 06:57:52;;;;;;;13.00;6.75;;;0.40;12.60;;;;;;5063415;28;20036;-70
2021/12/03 07:00:22;;;;;;;10.18;6.13;;;0.30;13.50;;;;;;5061804;28;20050;-70
2021/12/03 07:02:50;;;;;;;9.50;6.57;;;0.40;12.50;;;;;;5062395;28;20041;-70
2021/12/03 07:05:18;;;;;;;12.48;6.95;;;0.50;12.50;;;;;;5063250;28;20082;-70
2021/12/03 07:07:47;;;;;;;10.75;6.90;;;0.50;12.30;;;;;;5058889;28;20064;-70
2021/12/03 07:10:15;;;;;;;13.70;7.05;;;0.60;11.90;;;;;;5058140;28;20507;-70
2021/12/03 07:12:44;;;;;;;9.52;6.15;;;0.70;11.80;;;;;;5065573;28;20075;-70
2021/12/03 07:15:13;;;;;;;11.43;6.70;;;0.80;11.60;;;;;;5057470;28;20558;-70
2021/12/03 07:17:42;;;;;;;11.65;6.32;;;0.80;11.30;;;;;;5062329;28;20063;-70
2021/12/03 07:20:11;;;;;;;10.73;6.80;;;0.90;9.90;;;;;;5063218;28;20729;-71
2021/12/03 07:22:39;;;;;;;7.60;5.38;;;0.90;9.90;;;;;;5060554;28;20044;-70
2021/12/03 07:25:08;;;;;;;10.80;5.70;;;1.00;8.00;;;;;;5066008;28;20060;-70
2021/12/03 07:27:36;;;;;;;10.60;5.15;;;1.00;8.50;;;;;;5059872;28;20044;-70
2021/12/03 07:30:08;;;;;;;9.43;5.45;;;1.10;8.20;;;;;;5059198;28;20157;-70
2021/12/03 07:32:36;;;;;;;7.00;4.47;;;1.10;6.50;;;;;;5047657;28;20052;-70
2021/12/03 07:35:05;;;;;;;5.32;3.95;;;1.10;4.50;;;;;;5059484;28;20044;-70
2021/12/03 07:37:33;;;;;;;6.93;3.55;;;1.10;4.20;;;;;;5060244;28;20289;-70
2021/12/03 07:40:03;;;;;;;6.20;3.60;;;1.30;4.50;;;;;;5062449;28;20060;-70
2021/12/03 07:42:31;;;;;;;4.20;2.90;;;1.40;1.60;;;;;;5059903;28;20131;-70
2021/12/03 07:44:59;;;;;;;5.93;3.08;;;1.50;1.50;;;;;;5065020;28;20044;-70
2021/12/03 07:47:29;;;;;;;4.95;3.05;;;1.50;1.40;;;;;;5066308;28;20142;-71
2021/12/03 07:49:57;;;;;;;5.20;3.08;;;1.50;1.00;;;;;;5042439;28;20048;-71
2021/12/03 07:52:25;;;;;;;6.40;3.05;;;1.50;1.00;;;;;;5068058;28;20047;-71
2021/12/03 07:54:53;;;;;;;5.55;3.10;;;1.50;1.00;;;;;;5067629;28;20118;-71
2021/12/03 07:57:22;;;;;;;5.03;3.08;;;1.60;1.00;;;;;;5061555;28;20048;-71
2021/12/03 07:59:51;;;;;;;5.05;2.95;;;1.60;1.00;;;;;;5063845;28;20050;-70
2021/12/03 08:02:19;;;;;;;5.50;3.10;;;1.60;1.00;;;;;;5060816;28;20467;-71
2021/12/03 08:04:49;;;;;;;3.95;2.80;;;1.70;1.00;;;;;;5062760;28;20128;-71
2021/12/03 08:07:17;;;;;;;11.00;2.83;;;1.70;1.00;;;;;;5069130;28;20062;-71
2021/12/03 08:09:45;;;;;;;8.10;2.60;;;1.70;1.00;;;;;;5061952;28;20072;-71
2021/12/03 08:12:13;;;;;;;4.57;2.65;;;1.70;1.00;;;;;;5066556;28;20045;-71
2021/12/03 08:14:41;;;;;;;3.78;2.60;;;1.70;1.00;;;;;;5068408;28;20040;-71
2021/12/03 08:17:09;;;;;;;4.53;2.47;;;1.70;1.00;;;;;;5060098;28;20188;-71
2021/12/03 08:19:37;;;;;;;4.72;2.38;;;1.70;1.00;;;;;;5063272;28;20080;-71
2021/12/03 08:22:07;;;;;;;4.00;2.38;;;1.70;1.00;;;;;;5066923;28;20050;-71
2021/12/03 08:24:35;;;;;;;3.25;2.40;;;1.70;1.00;;;;;;5063965;28;20052;-69
2021/12/03 08:27:03;;;;;;;6.68;2.80;;;1.60;1.00;;;;;;5068705;28;20446;-70
2021/12/03 08:29:33;;;;;;;4.22;2.80;;;1.80;1.00;;;;;;5063614;28;20192;-71
2021/12/03 08:32:01;;;;;;;6.82;3.70;;;1.80;1.00;;;;;;5066934;28;20518;-71
2021/12/03 08:34:29;;;;;;;5.93;4.22;;;1.80;1.00;;;;;;5068188;28;20559;-70
2021/12/03 08:37:00;;;;;;;8.38;4.43;;;1.90;1.00;;;;;;5061344;28;21252;-70
2021/12/03 08:39:30;;;;;;;5.20;3.08;;;1.90;1.00;;;;;;5043581;28;20412;-71
2021/12/03 08:41:58;;;;;;;5.57;2.63;;;1.90;1.00;;;;;;5070744;28;20041;-71
2021/12/03 08:44:27;;;;;;;5.70;2.88;;;1.80;1.00;;;;;;5061645;28;20044;-71
2021/12/03 08:46:59;;;;;;;6.45;3.00;;;1.90;1.00;;;;;;5061588;28;20059;-70
2021/12/03 08:49:29;;;;;;;6.25;2.90;;;1.90;1.00;;;;;;5064008;28;20045;-69
2021/12/03 08:52:34;;;;;;;6.75;3.17;;;2.00;1.00;;;;;;5063192;28;20056;-69
2021/12/03 08:55:04;;;;;;;6.85;3.30;;;2.10;1.00;;;;;;5066515;28;20127;-71
2021/12/03 08:57:35;;;;;;;6.82;3.72;;;2.00;1.00;;;;;;5067883;28;20058;-70
2021/12/03 09:00:06;;;;;;;6.55;3.45;;;2.10;1.00;;;;;;5058936;28;20044;-70
2021/12/03 09:02:34;;;;;;;6.30;2.83;;;2.10;1.00;;;;;;5063951;28;20091;-70
2021/12/03 09:05:03;;;;;;;6.53;3.35;;;2.10;1.00;;;;;;5063792;28;20123;-70
2021/12/03 09:07:31;;;;;;;5.20;3.00;;;2.10;1.00;;;;;;5056524;28;20048;-71
2021/12/03 09:09:59;;;;;;;4.00;3.30;;;2.10;1.00;;;;;;5061503;28;20040;-70
2021/12/03 09:12:28;;;;;;;46.65;25.77;;;2.00;1.00;;;;;;5064267;28;20508;-70
2021/12/03 09:14:58;;;;;;;6.85;3.50;;;2.40;1.00;;;;;;5061649;28;20054;-70
2021/12/03 09:17:43;;;;;;;6.05;3.88;;;2.30;1.00;;;;;;5066685;28;20040;-69
2021/12/03 09:20:27;;;;;;;7.38;3.83;;;2.30;1.00;;;;;;5063817;28;20037;-70
2021/12/03 09:22:59;;;;;;;6.90;3.63;;;2.40;1.00;;;;;;5062504;28;20142;-70
2021/12/03 09:25:32;;;;;;;7.50;3.70;;;2.50;1.00;;;;;;5064089;28;20097;-70
2021/12/03 09:28:05;;;;;;;5.77;3.80;;;2.40;1.00;;;;;;5045746;28;20475;-71
2021/12/03 09:30:37;;;;;;;8.90;4.15;;;2.40;1.00;;;;;;5062209;28;20044;-70
2021/12/03 09:33:07;;;;;;;6.22;3.55;;;2.50;1.00;;;;;;5066681;28;20148;-71
2021/12/03 09:35:39;;;;;;;5.65;3.33;;;2.50;1.00;;;;;;5061659;28;20064;-70
2021/12/03 09:38:10;;;;;;;7.82;3.83;;;2.40;1.00;;;;;;5059999;28;20055;-70
2021/12/03 09:40:39;;;;;;;6.90;3.63;;;2.60;1.00;;;;;;5064201;28;20047;-70
2021/12/03 09:43:09;;;;;;;4.93;3.00;;;2.70;1.00;;;;;;5061969;28;20381;-70
2021/12/03 09:45:40;;;;;;;8.88;6.10;;;2.40;1.00;;;;;;5064932;28;20060;-70
2021/12/03 09:48:16;;;;;;;6.03;2.97;;;2.50;1.00;;;;;;5065314;28;20048;-71
2021/12/03 09:50:45;;;;;;;5.90;2.55;;;2.50;1.00;;;;;;5066774;28;20136;-71
2021/12/03 09:53:27;;;;;;;6.18;2.85;;;2.50;1.00;;;;;;5060939;28;20048;-70
2021/12/03 09:55:55;;;;;;;9.45;2.83;;;2.60;1.00;;;;;;5062474;28;20135;-70
2021/12/03 09:58:44;;;;;;;6.30;2.63;;;2.70;1.00;;;;;;5061038;28;20059;-70
2021/12/03 10:01:16;;;;;;;4.88;2.47;;;2.70;1.00;;;;;;5060014;28;20044;-71
2021/12/03 10:04:01;;;;;;;6.63;2.53;;;2.80;1.00;;;;;;5068621;28;20049;-70
2021/12/03 10:12:42;;;;;;;6.57;2.45;;;2.80;1.00;;;;;;5060208;28;20067;-70
2021/12/03 10:15:15;;;;;;;5.75;2.20;;;2.70;1.00;;;;;;5061539;28;20049;-71
2021/12/03 10:17:51;;;;;;;4.50;2.55;;;2.80;1.00;;;;;;5058238;28;20052;-69
2021/12/03 10:40:01;;;;;;;3.88;2.28;;;2.90;1.00;;;;;;5057983;28;20091;-70
2021/12/03 10:42:39;;;;;;;7.72;2.83;;;2.90;1.00;;;;;;5042243;28;21397;-70
2021/12/03 10:45:24;;;;;;;5.15;2.85;;;2.80;1.00;;;;;;5059484;28;20051;-69
2021/12/03 10:48:12;;;;;;;;;;;2.70;1.00;;;;;;5057486;28;20412;-70
2021/12/03 10:53:39;;;;;;;6.45;3.10;;;2.70;1.00;;;;;;5050671;28;20055;-70
2021/12/03 10:56:29;;;;;;;;;;;2.80;1.00;;;;;;5055336;28;20040;-71
2021/12/03 11:34:33;;;;;;;4.38;2.65;;;3.50;1.00;;;;;;5068092;28;20426;-67
2021/12/03 11:40:21;;;;;;;5.60;3.05;;;3.80;1.00;;;;;;5063478;28;20131;-70
2021/12/03 11:43:46;;;;;;;5.75;3.13;;;3.60;1.00;;;;;;5065987;28;20090;-71
2021/12/03 11:52:45;;;;;;;4.20;2.72;;;3.50;1.00;;;;;;5066792;28;20045;-70
2021/12/03 13:13:24;;;;;;;5.78;2.92;;;3.70;1.00;;;;;;5065757;28;20049;-69
2021/12/03 14:40:52;;;;;;;5.95;1.83;;;3.30;1.00;;;;;;5049304;28;20481;-69
2021/12/03 14:46:28;;;;;;;3.70;1.83;;;3.20;1.00;;;;;;5051491;28;20129;-71
2021/12/03 14:49:31;;;;;;;6.57;3.70;;;3.20;1.00;;;;;;5053960;28;20055;-72
2021/12/03 14:52:09;;;;;;;3.50;1.80;;;3.30;1.00;;;;;;5055630;28;20041;-71
2021/12/03 14:54:48;;;;;;;3.72;1.55;;;3.20;1.00;;;;;;5053625;28;20107;-71
2021/12/03 14:57:29;;;;;;;3.03;1.70;;;3.10;1.00;;;;;;5053767;28;20292;-71
2021/12/03 15:00:09;;;;;;;5.72;1.50;;;3.10;1.00;;;;;;5051589;28;20396;-69
2021/12/03 15:06:01;;;;;;;6.45;2.10;;;3.00;1.00;;;;;;5055357;28;20051;-70
2021/12/03 15:08:34;;;;;;;4.53;2.03;;;3.00;1.00;;;;;;5048358;28;20124;-70
2021/12/03 15:11:43;;;;;;;4.00;2.22;;;3.00;1.00;;;;;;5048808;28;20068;-70
2021/12/03 15:22:50;;;;;;;6.60;2.17;;;2.80;1.00;;;;;;5057236;28;20076;-70
2021/12/03 15:25:35;;;;;;;2.83;1.27;;;2.70;1.00;;;;;;5049002;28;20041;-70
2021/12/03 15:28:27;;;;;;;8.27;2.00;;;2.70;1.00;;;;;;5053199;28;20051;-70
2021/12/03 15:31:07;;;;;;;8.32;4.90;;;2.60;1.00;;;;;;5056825;28;20537;-70
2021/12/03 15:33:45;;;;;;;4.10;2.33;;;2.50;1.00;;;;;;5055065;28;20041;-69
2021/12/03 15:36:16;;;;;;;5.60;2.90;;;2.50;1.00;;;;;;5061003;28;20090;-70
2021/12/03 15:39:01;;;;;;;5.95;2.60;;;2.50;1.00;;;;;;5059168;28;20063;-72
2021/12/03 15:58:21;;;;;;;6.72;2.88;;;2.40;1.00;;;;;;5031120;28;20048;-70
2021/12/03 16:03:45;;;;;;;5.20;2.67;;;2.30;1.00;;;;;;5060329;28;20501;-71
2021/12/03 16:06:22;;;;;;;;;;;2.20;1.00;;;;;;5060947;28;20090;-70
2021/12/03 16:08:51;;;;;;;;;;;2.20;1.00;;;;;;5059986;28;20019;-70
2021/12/03 16:11:32;;;;;;;;;;;2.20;1.00;;;;;;5061270;28;19967;-70
2021/12/03 16:14:22;;;;;;;;;;;2.20;1.00;;;;;;5063692;28;19931;-69
2021/12/03 16:17:05;;;;;;;;;;;2.20;1.00;;;;;;5068930;28;19974;-70
2021/12/03 16:19:52;;;;;;;;;;;2.30;1.00;;;;;;5060417;28;20734;-70
2021/12/03 16:25:32;;;;;;;;;;;2.20;1.00;;;;;;4999422;28;19936;-70
2021/12/03 16:51:09;;;;;;;;;;;2.10;1.00;;;;;;5035275;28;20061;-70
2021/12/03 16:53:39;;;;;;;;;;;2.10;1.00;;;;;;5058494;28;20380;-70
2021/12/03 16:56:15;;;;;;;;;;;2.10;1.00;;;;;;5056826;28;19986;-70
2021/12/03 16:58:44;;;;;;;;;;;2.20;1.00;;;;;;5058827;28;19943;-70
2021/12/03 17:01:20;;;;;;;;;;;2.30;1.00;;;;;;5058878;28;20397;-70
2021/12/03 17:03:55;;;;;;;;;;;2.30;1.00;;;;;;5063022;28;19928;-69
2021/12/03 17:09:15;;;;;;;;;;;2.40;1.00;;;;;;5048257;28;19921;-70
2021/12/03 17:12:03;;;;;;;;;;;2.40;1.00;;;;;;5050222;28;19951;-69
2021/12/03 17:29:35;;;;;;;;;;;2.40;1.00;;;;;;5095267;28;20008;-70
2021/12/03 17:48:57;;;;;;;;;;;2.60;1.00;;;;;;5116382;28;20693;-71
2021/12/03 17:57:11;;;;;;;;;;;2.60;1.00;;;;;;5099316;28;19971;-70
2021/12/03 17:59:43;;;;;;;;;;;2.60;1.00;;;;;;5076591;28;19936;-70
2021/12/03 18:02:21;;;;;;;;;;;2.60;1.00;;;;;;5111091;27;19955;-69
2021/12/03 18:05:22;;;;;;;;;;;2.70;1.00;;;;;;5120081;27;20409;-70
2021/12/03 18:08:01;;;;;;;;;;;2.70;1.00;;;;;;5115046;27;20038;-69
2021/12/03 18:10:45;;;;;;;;;;;2.70;1.00;;;;;;5117512;27;20003;-70
2021/12/03 18:13:40;;;;;;;;;;;2.70;1.00;;;;;;5122504;27;19965;-71
2021/12/03 18:44:22;;;;;;;;;;;2.80;1.00;;;;;;5091805;28;20406;-72
2021/12/03 18:49:56;;;;;;;;;;;2.80;1.00;;;;;;5060039;28;20020;-69
2021/12/03 18:52:42;;;;;;;;;;;2.80;1.00;;;;;;5085011;28;19928;-70
2021/12/03 18:55:14;;;;;;;;;;;2.80;1.00;;;;;;5094618;28;20314;-71
2021/12/03 18:57:44;;;;;;;;;;;2.80;1.00;;;;;;5080439;28;20039;-71
2021/12/03 19:00:15;;;;;;;;;;;2.80;1.00;;;;;;5086786;28;19975;-69
2021/12/03 19:02:46;;;;;;;;;;;2.80;1.00;;;;;;5103656;28;19963;-70
2021/12/03 19:05:20;;;;;;;;;;;2.80;1.00;;;;;;5103356;27;19927;-70
2021/12/03 19:08:02;;;;;;;;;;;2.90;1.00;;;;;;5108140;27;19938;-69
2021/12/03 19:10:31;;;;;;;;;;;2.90;1.00;;;;;;5109473;27;20494;-71
2021/12/03 19:13:03;;;;;;;;;;;3.00;1.00;;;;;;5103994;27;20019;-71
2021/12/03 19:15:32;;;;;;;;;;;3.00;1.00;;;;;;5103235;27;19924;-70
2021/12/03 19:18:00;;;;;;;;;;;3.00;1.00;;;;;;5108703;27;20026;-71
2021/12/03 19:20:49;;;;;;;;;;;2.90;1.00;;;;;;5100447;28;19988;-70
2021/12/03 19:23:19;;;;;;;;;;;2.90;1.00;;;;;;5104733;27;20380;-70
2021/12/03 19:25:47;;;;;;;;;;;2.90;1.00;;;;;;5107310;27;19928;-70
2021/12/03 19:28:19;;;;;;;;;;;2.90;1.00;;;;;;5103800;27;19963;-70
2021/12/03 19:30:48;;;;;;;;;;;2.90;1.00;;;;;;5110030;27;19930;-70
2021/12/03 19:33:16;;;;;;;;;;;2.90;1.00;;;;;;5106825;27;19927;-70
2021/12/03 19:35:43;;;;;;;;;;;2.90;1.00;;;;;;5104251;27;20023;-70
2021/12/03 19:38:15;;;;;;;;;;;2.90;1.00;;;;;;5108464;27;19932;-70
2021/12/03 19:40:51;;;;;;;;;;;2.90;1.00;;;;;;5109676;27;19930;-69
2021/12/03 19:43:25;;;;;;;;;;;2.90;1.00;;;;;;5103612;27;21104;-69